sensor_id;sensor_type;location;lat;lon;timestamp;pressure;altitude;pressure_sealevel;temperature;humidity
10881;BME280;5493;48.884;8.338;2023-04-02T00:01:23;99486.72;;;10.50;100.00
10881;BME280;5493;48.884;8.338;2023-04-02T00:04:06;99489.91;;;10.35;100.00
10881;BME280;5493;48.884;8.338;2023-04-02T00:06:39;99500.09;;;10.45;100.00
10881;BME280;5493;48.884;8.338;2023-04-02T00:09:24;99493.69;;;10.34;100.00
10881;BME280;5493;48.884;8.338;2023-04-02T00:11:54;99494.63;;;10.17;100.00
10881;BME280;5493;48.884;8.338;2023-04-02T00:14:24;99497.22;;;10.23;100.00
10881;BME280;5493;48.884;8.338;2023-04-02T00:16:52;99497.78;;;10.25;100.00
10881;BME280;5493;48.884;8.338;2023-04-02T00:19:29;99499.31;;;10.21;100.00
10881;BME280;5493;48.884;8.338;2023-04-02T00:21:57;99502.13;;;10.26;100.00
10881;BME280;5493;48.884;8.338;2023-04-02T00:24:25;99504.41;;;10.46;100.00
10881;BME280;5493;48.884;8.338;2023-04-02T00:26:53;99503.97;;;10.38;100.00
10881;BME280;5493;48.884;8.338;2023-04-02T00:29:20;99498.81;;;10.24;100.00
10881;BME280;5493;48.884;8.338;2023-04-02T00:31:50;99501.75;;;10.34;100.00
10881;BME280;5493;48.884;8.338;2023-04-02T00:34:19;99504.06;;;10.43;100.00
10881;BME280;5493;48.884;8.338;2023-04-02T00:36:47;99508.91;;;10.29;100.00
10881;BME280;5493;48.884;8.338;2023-04-02T00:39:19;99506.69;;;10.26;100.00
10881;BME280;5493;48.884;8.338;2023-04-02T00:41:47;99503.16;;;10.37;100.00
10881;BME280;5493;48.884;8.338;2023-04-02T00:44:23;99501.03;;;10.27;100.00
10881;BME280;5493;48.884;8.338;2023-04-02T00:46:51;99498.47;;;10.32;100.00
10881;BME280;5493;48.884;8.338;2023-04-02T00:49:21;99500.34;;;10.20;100.00
10881;BME280;5493;48.884;8.338;2023-04-02T00:51:52;99502.47;;;10.30;100.00
10881;BME280;5493;48.884;8.338;2023-04-02T00:54:20;99490.38;;;10.32;100.00
10881;BME280;5493;48.884;8.338;2023-04-02T00:56:52;99504.47;;;10.34;100.00
10881;BME280;5493;48.884;8.338;2023-04-02T00:59:25;99499.28;;;10.45;100.00
10881;BME280;5493;48.884;8.338;2023-04-02T01:01:58;99495.41;;;10.41;100.00
10881;BME280;5493;48.884;8.338;2023-04-02T01:04:29;99500.34;;;10.32;100.00
10881;BME280;5493;48.884;8.338;2023-04-02T01:07:00;99502.91;;;10.38;100.00
10881;BME280;5493;48.884;8.338;2023-04-02T01:09:42;99505.09;;;10.53;100.00
10881;BME280;5493;48.884;8.338;2023-04-02T01:12:26;99499.50;;;10.43;100.00
10881;BME280;5493;48.884;8.338;2023-04-02T01:15:00;99501.56;;;10.53;100.00
10881;BME280;5493;48.884;8.338;2023-04-02T01:17:41;99503.38;;;10.47;100.00
10881;BME280;5493;48.884;8.338;2023-04-02T01:23:31;99504.28;;;10.53;100.00
10881;BME280;5493;48.884;8.338;2023-04-02T01:26:07;99509.47;;;10.43;100.00
10881;BME280;5493;48.884;8.338;2023-04-02T01:28:49;99509.38;;;10.38;100.00
10881;BME280;5493;48.884;8.338;2023-04-02T01:31:19;99515.44;;;10.45;100.00
10881;BME280;5493;48.884;8.338;2023-04-02T01:33:46;99506.75;;;10.43;100.00
10881;BME280;5493;48.884;8.338;2023-04-02T01:36:18;99493.91;;;10.33;100.00
10881;BME280;5493;48.884;8.338;2023-04-02T01:38:55;99510.16;;;10.50;100.00
10881;BME280;5493;48.884;8.338;2023-04-02T01:41:30;99511.75;;;10.62;100.00
10881;BME280;5493;48.884;8.338;2023-04-02T01:44:04;99510.94;;;10.62;100.00
10881;BME280;5493;48.884;8.338;2023-04-02T01:46:34;99510.25;;;10.55;100.00
10881;BME280;5493;48.884;8.338;2023-04-02T01:49:11;99511.28;;;10.65;100.00
10881;BME280;5493;48.884;8.338;2023-04-02T01:51:41;99512.69;;;10.68;100.00
10881;BME280;5493;48.884;8.338;2023-04-02T01:54:09;99511.41;;;10.70;100.00
10881;BME280;5493;48.884;8.338;2023-04-02T01:56:36;99513.28;;;10.70;100.00
10881;BME280;5493;48.884;8.338;2023-04-02T01:59:05;99527.50;;;10.82;100.00
10881;BME280;5493;48.884;8.338;2023-04-02T02:01:35;99521.69;;;10.73;100.00
10881;BME280;5493;48.884;8.338;2023-04-02T02:04:05;99524.47;;;10.78;100.00
10881;BME280;5493;48.884;8.338;2023-04-02T02:06:32;99529.25;;;10.60;100.00
10881;BME280;5493;48.884;8.338;2023-04-02T02:09:00;99531.19;;;10.64;100.00
10881;BME280;5493;48.884;8.338;2023-04-02T02:11:30;99532.16;;;10.70;100.00
10881;BME280;5493;48.884;8.338;2023-04-02T02:13:59;99548.19;;;10.76;100.00
10881;BME280;5493;48.884;8.338;2023-04-02T02:16:28;99548.88;;;10.72;100.00
10881;BME280;5493;48.884;8.338;2023-04-02T02:18:58;99547.97;;;10.66;100.00
10881;BME280;5493;48.884;8.338;2023-04-02T02:21:33;99559.69;;;10.60;100.00
10881;BME280;5493;48.884;8.338;2023-04-02T02:24:03;99556.78;;;10.50;100.00
10881;BME280;5493;48.884;8.338;2023-04-02T02:26:31;99558.66;;;10.50;100.00
10881;BME280;5493;48.884;8.338;2023-04-02T02:29:02;99549.66;;;10.32;100.00
10881;BME280;5493;48.884;8.338;2023-04-02T02:31:34;99560.44;;;10.32;100.00
10881;BME280;5493;48.884;8.338;2023-04-02T02:34:04;99559.97;;;10.12;100.00
10881;BME280;5493;48.884;8.338;2023-04-02T02:36:34;99560.91;;;10.41;100.00
10881;BME280;5493;48.884;8.338;2023-04-02T02:39:12;99564.88;;;10.38;100.00
10881;BME280;5493;48.884;8.338;2023-04-02T02:41:43;99564.31;;;10.25;100.00
10881;BME280;5493;48.884;8.338;2023-04-02T02:44:15;99566.25;;;10.06;100.00
10881;BME280;5493;48.884;8.338;2023-04-02T02:46:47;99571.94;;;10.16;100.00
10881;BME280;5493;48.884;8.338;2023-04-02T02:49:18;99579.03;;;10.11;100.00
10881;BME280;5493;48.884;8.338;2023-04-02T02:51:49;99573.91;;;10.21;100.00
10881;BME280;5493;48.884;8.338;2023-04-02T02:54:18;99583.44;;;9.82;100.00
10881;BME280;5493;48.884;8.338;2023-04-02T02:56:47;99581.50;;;10.12;100.00
10881;BME280;5493;48.884;8.338;2023-04-02T02:59:18;99588.25;;;9.92;100.00
10881;BME280;5493;48.884;8.338;2023-04-02T03:01:47;99593.19;;;10.06;100.00
10881;BME280;5493;48.884;8.338;2023-04-02T03:04:18;99590.06;;;10.21;100.00
10881;BME280;5493;48.884;8.338;2023-04-02T03:06:47;99588.97;;;10.10;100.00
10881;BME280;5493;48.884;8.338;2023-04-02T03:09:18;99592.41;;;10.17;100.00
10881;BME280;5493;48.884;8.338;2023-04-02T03:11:49;99597.88;;;10.11;100.00
10881;BME280;5493;48.884;8.338;2023-04-02T03:14:21;99590.91;;;10.21;100.00
10881;BME280;5493;48.884;8.338;2023-04-02T03:16:56;99600.34;;;10.12;100.00
10881;BME280;5493;48.884;8.338;2023-04-02T03:19:28;99596.75;;;10.30;100.00
10881;BME280;5493;48.884;8.338;2023-04-02T03:22:00;99607.19;;;10.26;100.00
10881;BME280;5493;48.884;8.338;2023-04-02T03:24:32;99602.84;;;10.25;100.00
10881;BME280;5493;48.884;8.338;2023-04-02T03:27:03;99604.63;;;10.20;100.00
10881;BME280;5493;48.884;8.338;2023-04-02T03:29:34;99604.03;;;10.29;100.00
10881;BME280;5493;48.884;8.338;2023-04-02T03:32:06;99619.44;;;10.11;100.00
10881;BME280;5493;48.884;8.338;2023-04-02T03:34:41;99617.88;;;9.92;100.00
10881;BME280;5493;48.884;8.338;2023-04-02T03:37:15;99614.72;;;9.83;100.00
10881;BME280;5493;48.884;8.338;2023-04-02T03:39:45;99616.91;;;10.16;100.00
10881;BME280;5493;48.884;8.338;2023-04-02T03:42:19;99626.13;;;10.08;100.00
10881;BME280;5493;48.884;8.338;2023-04-02T03:44:49;99626.44;;;10.00;100.00
10881;BME280;5493;48.884;8.338;2023-04-02T03:47:24;99627.97;;;10.08;100.00
10881;BME280;5493;48.884;8.338;2023-04-02T03:49:56;99628.78;;;9.97;100.00
10881;BME280;5493;48.884;8.338;2023-04-02T03:52:26;99632.63;;;9.89;100.00
10881;BME280;5493;48.884;8.338;2023-04-02T03:54:55;99630.91;;;10.06;100.00
10881;BME280;5493;48.884;8.338;2023-04-02T03:57:28;99631.63;;;10.02;100.00
10881;BME280;5493;48.884;8.338;2023-04-02T04:00:00;99629.16;;;10.12;100.00
10881;BME280;5493;48.884;8.338;2023-04-02T04:02:38;99635.63;;;10.22;100.00
10881;BME280;5493;48.884;8.338;2023-04-02T04:05:20;99632.00;;;10.17;100.00
10881;BME280;5493;48.884;8.338;2023-04-02T04:07:50;99636.81;;;10.26;100.00
10881;BME280;5493;48.884;8.338;2023-04-02T04:10:21;99633.66;;;10.29;100.00
10881;BME280;5493;48.884;8.338;2023-04-02T04:12:51;99638.94;;;10.36;100.00
10881;BME280;5493;48.884;8.338;2023-04-02T04:15:21;99635.88;;;10.44;100.00
10881;BME280;5493;48.884;8.338;2023-04-02T04:17:54;99643.84;;;10.39;100.00
10881;BME280;5493;48.884;8.338;2023-04-02T04:20:29;99644.56;;;10.23;100.00
10881;BME280;5493;48.884;8.338;2023-04-02T04:23:07;99657.09;;;10.41;100.00
10881;BME280;5493;48.884;8.338;2023-04-02T04:25:35;99657.66;;;10.43;100.00
10881;BME280;5493;48.884;8.338;2023-04-02T04:28:08;99650.66;;;10.42;100.00
10881;BME280;5493;48.884;8.338;2023-04-02T04:30:44;99666.69;;;10.25;100.00
10881;BME280;5493;48.884;8.338;2023-04-02T04:33:17;99659.00;;;10.10;100.00
10881;BME280;5493;48.884;8.338;2023-04-02T04:35:49;99671.50;;;10.23;100.00
10881;BME280;5493;48.884;8.338;2023-04-02T04:38:19;99677.22;;;10.26;100.00
10881;BME280;5493;48.884;8.338;2023-04-02T04:40:55;99673.47;;;10.16;100.00
10881;BME280;5493;48.884;8.338;2023-04-02T04:43:29;99680.47;;;10.17;100.00
10881;BME280;5493;48.884;8.338;2023-04-02T04:46:02;99691.28;;;9.99;100.00
10881;BME280;5493;48.884;8.338;2023-04-02T04:48:35;99693.09;;;10.05;100.00
10881;BME280;5493;48.884;8.338;2023-04-02T04:51:05;99697.13;;;9.96;100.00
10881;BME280;5493;48.884;8.338;2023-04-02T04:53:43;99697.25;;;9.89;100.00
10881;BME280;5493;48.884;8.338;2023-04-02T04:56:11;99707.88;;;9.84;100.00
10881;BME280;5493;48.884;8.338;2023-04-02T04:58:41;99719.50;;;9.96;100.00
10881;BME280;5493;48.884;8.338;2023-04-02T05:01:13;99720.38;;;10.08;100.00
10881;BME280;5493;48.884;8.338;2023-04-02T05:03:45;99718.69;;;9.96;100.00
10881;BME280;5493;48.884;8.338;2023-04-02T05:06:23;99731.16;;;9.78;100.00
10881;BME280;5493;48.884;8.338;2023-04-02T05:08:53;99729.28;;;9.79;100.00
10881;BME280;5493;48.884;8.338;2023-04-02T05:11:27;99737.16;;;9.92;100.00
10881;BME280;5493;48.884;8.338;2023-04-02T05:13:57;99748.13;;;9.79;100.00
10881;BME280;5493;48.884;8.338;2023-04-02T05:16:30;99741.38;;;9.88;100.00
10881;BME280;5493;48.884;8.338;2023-04-02T05:19:05;99750.72;;;9.85;100.00
10881;BME280;5493;48.884;8.338;2023-04-02T05:21:39;99752.75;;;9.90;100.00
10881;BME280;5493;48.884;8.338;2023-04-02T05:24:27;99759.06;;;9.96;100.00
10881;BME280;5493;48.884;8.338;2023-04-02T05:27:01;99760.38;;;9.93;100.00
10881;BME280;5493;48.884;8.338;2023-04-02T05:29:34;99763.78;;;10.00;100.00
10881;BME280;5493;48.884;8.338;2023-04-02T05:32:07;99774.41;;;9.95;100.00
10881;BME280;5493;48.884;8.338;2023-04-02T05:34:37;99769.75;;;10.02;100.00
10881;BME280;5493;48.884;8.338;2023-04-02T05:37:12;99771.66;;;10.02;100.00
10881;BME280;5493;48.884;8.338;2023-04-02T05:39:43;99776.56;;;10.05;100.00
10881;BME280;5493;48.884;8.338;2023-04-02T05:42:14;99787.81;;;10.02;100.00
10881;BME280;5493;48.884;8.338;2023-04-02T05:44:55;99789.00;;;9.87;100.00
10881;BME280;5493;48.884;8.338;2023-04-02T05:47:25;99787.84;;;9.83;100.00
10881;BME280;5493;48.884;8.338;2023-04-02T05:50:08;99782.28;;;9.97;100.00
10881;BME280;5493;48.884;8.338;2023-04-02T05:52:41;99791.44;;;10.07;100.00
10881;BME280;5493;48.884;8.338;2023-04-02T05:55:27;99804.78;;;9.84;100.00
10881;BME280;5493;48.884;8.338;2023-04-02T05:58:00;99800.09;;;10.09;100.00
10881;BME280;5493;48.884;8.338;2023-04-02T06:00:40;99795.50;;;10.16;100.00
10881;BME280;5493;48.884;8.338;2023-04-02T06:03:16;99800.81;;;10.23;100.00
10881;BME280;5493;48.884;8.338;2023-04-02T06:05:50;99800.81;;;10.05;100.00
10881;BME280;5493;48.884;8.338;2023-04-02T06:08:21;99803.63;;;10.28;100.00
10881;BME280;5493;48.884;8.338;2023-04-02T06:10:54;99808.88;;;10.23;100.00
10881;BME280;5493;48.884;8.338;2023-04-02T06:13:24;99810.06;;;10.27;100.00
10881;BME280;5493;48.884;8.338;2023-04-02T06:15:50;99808.63;;;10.24;100.00
10881;BME280;5493;48.884;8.338;2023-04-02T06:18:19;99824.44;;;10.21;100.00
10881;BME280;5493;48.884;8.338;2023-04-02T06:20:48;99823.09;;;10.12;100.00
10881;BME280;5493;48.884;8.338;2023-04-02T06:23:17;99826.56;;;10.19;100.00
10881;BME280;5493;48.884;8.338;2023-04-02T06:25:47;99824.34;;;10.27;100.00
10881;BME280;5493;48.884;8.338;2023-04-02T06:28:16;99825.19;;;10.10;100.00
10881;BME280;5493;48.884;8.338;2023-04-02T06:30:46;99831.25;;;10.23;100.00
10881;BME280;5493;48.884;8.338;2023-04-02T06:33:13;99832.25;;;10.41;100.00
10881;BME280;5493;48.884;8.338;2023-04-02T06:35:42;99838.59;;;10.46;100.00
10881;BME280;5493;48.884;8.338;2023-04-02T06:38:16;99839.91;;;10.55;100.00
10881;BME280;5493;48.884;8.338;2023-04-02T06:40:47;99841.34;;;10.69;100.00
10881;BME280;5493;48.884;8.338;2023-04-02T06:43:20;99845.00;;;10.63;100.00
10881;BME280;5493;48.884;8.338;2023-04-02T06:45:50;99851.53;;;10.56;100.00
10881;BME280;5493;48.884;8.338;2023-04-02T06:48:19;99849.50;;;10.51;100.00
10881;BME280;5493;48.884;8.338;2023-04-02T06:50:48;99854.69;;;10.64;100.00
10881;BME280;5493;48.884;8.338;2023-04-02T06:53:22;99862.94;;;10.69;100.00
10881;BME280;5493;48.884;8.338;2023-04-02T06:55:51;99873.31;;;10.54;100.00
10881;BME280;5493;48.884;8.338;2023-04-02T06:58:18;99875.00;;;10.67;100.00
10881;BME280;5493;48.884;8.338;2023-04-02T07:00:47;99877.91;;;10.65;100.00
10881;BME280;5493;48.884;8.338;2023-04-02T07:03:18;99888.13;;;10.75;100.00
10881;BME280;5493;48.884;8.338;2023-04-02T07:05:46;99897.19;;;10.80;100.00
10881;BME280;5493;48.884;8.338;2023-04-02T07:08:12;99897.16;;;10.69;100.00
10881;BME280;5493;48.884;8.338;2023-04-02T07:10:41;99898.38;;;10.84;100.00
10881;BME280;5493;48.884;8.338;2023-04-02T07:13:12;99900.88;;;10.68;100.00
10881;BME280;5493;48.884;8.338;2023-04-02T07:15:39;99898.13;;;10.86;100.00
10881;BME280;5493;48.884;8.338;2023-04-02T07:18:05;99902.97;;;10.96;100.00
10881;BME280;5493;48.884;8.338;2023-04-02T07:20:33;99904.91;;;10.77;100.00
10881;BME280;5493;48.884;8.338;2023-04-02T07:23:01;99906.19;;;10.74;100.00
10881;BME280;5493;48.884;8.338;2023-04-02T07:25:28;99906.44;;;10.73;100.00
10881;BME280;5493;48.884;8.338;2023-04-02T07:27:56;99912.19;;;10.76;100.00
10881;BME280;5493;48.884;8.338;2023-04-02T07:30:23;99914.59;;;11.08;100.00
10881;BME280;5493;48.884;8.338;2023-04-02T07:32:49;99921.63;;;10.97;100.00
10881;BME280;5493;48.884;8.338;2023-04-02T07:35:16;99923.75;;;11.18;100.00
10881;BME280;5493;48.884;8.338;2023-04-02T07:37:42;99926.13;;;11.26;100.00
10881;BME280;5493;48.884;8.338;2023-04-02T07:40:15;99923.91;;;11.23;100.00
10881;BME280;5493;48.884;8.338;2023-04-02T07:42:42;99928.03;;;11.38;100.00
10881;BME280;5493;48.884;8.338;2023-04-02T07:45:10;99927.53;;;11.29;100.00
10881;BME280;5493;48.884;8.338;2023-04-02T07:47:37;99933.09;;;11.46;100.00
10881;BME280;5493;48.884;8.338;2023-04-02T07:50:04;99935.31;;;11.60;100.00
10881;BME280;5493;48.884;8.338;2023-04-02T07:52:32;99938.72;;;11.56;100.00
10881;BME280;5493;48.884;8.338;2023-04-02T07:54:59;99933.09;;;11.57;100.00
10881;BME280;5493;48.884;8.338;2023-04-02T07:57:26;99947.28;;;11.41;100.00
10881;BME280;5493;48.884;8.338;2023-04-02T07:59:52;99948.59;;;11.50;100.00
10881;BME280;5493;48.884;8.338;2023-04-02T08:02:22;99951.75;;;11.35;100.00
10881;BME280;5493;48.884;8.338;2023-04-02T08:04:49;99956.41;;;11.40;100.00
10881;BME280;5493;48.884;8.338;2023-04-02T08:07:16;99962.88;;;11.51;100.00
10881;BME280;5493;48.884;8.338;2023-04-02T08:09:43;99963.28;;;11.77;100.00
10881;BME280;5493;48.884;8.338;2023-04-02T08:12:11;99961.41;;;11.78;100.00
10881;BME280;5493;48.884;8.338;2023-04-02T08:14:38;99969.88;;;11.81;100.00
10881;BME280;5493;48.884;8.338;2023-04-02T08:17:05;99967.88;;;12.00;100.00
10881;BME280;5493;48.884;8.338;2023-04-02T08:19:33;99967.75;;;12.07;100.00
10881;BME280;5493;48.884;8.338;2023-04-02T08:21:59;99963.44;;;12.34;100.00
10881;BME280;5493;48.884;8.338;2023-04-02T08:24:26;99969.03;;;12.56;100.00
10881;BME280;5493;48.884;8.338;2023-04-02T08:26:53;99972.31;;;12.58;100.00
10881;BME280;5493;48.884;8.338;2023-04-02T08:29:19;99973.50;;;12.62;100.00
10881;BME280;5493;48.884;8.338;2023-04-02T08:31:46;99977.91;;;12.40;100.00
10881;BME280;5493;48.884;8.338;2023-04-02T08:34:12;99980.97;;;12.31;100.00
10881;BME280;5493;48.884;8.338;2023-04-02T08:36:42;99987.53;;;12.47;100.00
10881;BME280;5493;48.884;8.338;2023-04-02T08:39:09;99990.53;;;12.62;100.00
10881;BME280;5493;48.884;8.338;2023-04-02T08:41:38;99989.78;;;12.78;100.00
10881;BME280;5493;48.884;8.338;2023-04-02T08:44:16;99995.88;;;12.46;100.00
10881;BME280;5493;48.884;8.338;2023-04-02T08:46:47;99992.59;;;12.44;100.00
10881;BME280;5493;48.884;8.338;2023-04-02T08:49:18;99999.63;;;12.84;100.00
10881;BME280;5493;48.884;8.338;2023-04-02T08:51:52;100000.56;;;12.90;100.00
10881;BME280;5493;48.884;8.338;2023-04-02T08:54:23;100003.69;;;12.99;100.00
10881;BME280;5493;48.884;8.338;2023-04-02T08:56:54;100003.31;;;12.78;100.00
10881;BME280;5493;48.884;8.338;2023-04-02T08:59:27;100010.16;;;12.98;100.00
10881;BME280;5493;48.884;8.338;2023-04-02T09:02:02;100019.31;;;13.08;100.00
10881;BME280;5493;48.884;8.338;2023-04-02T09:04:32;100016.81;;;13.07;100.00
10881;BME280;5493;48.884;8.338;2023-04-02T09:07:02;100020.06;;;12.92;100.00
10881;BME280;5493;48.884;8.338;2023-04-02T09:09:37;100025.22;;;12.65;100.00
10881;BME280;5493;48.884;8.338;2023-04-02T09:12:04;100022.72;;;12.75;100.00
10881;BME280;5493;48.884;8.338;2023-04-02T09:14:40;100009.41;;;12.74;100.00
10881;BME280;5493;48.884;8.338;2023-04-02T09:17:15;100026.75;;;13.13;100.00
10881;BME280;5493;48.884;8.338;2023-04-02T09:19:45;100022.53;;;12.94;100.00
10881;BME280;5493;48.884;8.338;2023-04-02T09:22:18;100031.75;;;13.21;100.00
10881;BME280;5493;48.884;8.338;2023-04-02T09:24:50;100034.34;;;13.61;100.00
10881;BME280;5493;48.884;8.338;2023-04-02T09:27:18;100037.47;;;13.53;100.00
10881;BME280;5493;48.884;8.338;2023-04-02T09:29:46;100044.44;;;13.82;100.00
10881;BME280;5493;48.884;8.338;2023-04-02T09:32:26;100049.50;;;14.28;100.00
10881;BME280;5493;48.884;8.338;2023-04-02T09:35:07;100045.03;;;14.56;100.00
10881;BME280;5493;48.884;8.338;2023-04-02T09:37:38;100052.63;;;14.54;100.00
10881;BME280;5493;48.884;8.338;2023-04-02T09:40:15;100054.81;;;15.00;100.00
10881;BME280;5493;48.884;8.338;2023-04-02T09:42:42;100048.53;;;15.21;100.00
10881;BME280;5493;48.884;8.338;2023-04-02T09:45:13;100054.13;;;15.37;100.00
10881;BME280;5493;48.884;8.338;2023-04-02T09:47:43;100053.66;;;15.71;100.00
10881;BME280;5493;48.884;8.338;2023-04-02T09:50:24;100051.22;;;16.07;100.00
10881;BME280;5493;48.884;8.338;2023-04-02T09:52:53;100052.66;;;16.56;100.00
10881;BME280;5493;48.884;8.338;2023-04-02T09:55:22;100052.00;;;16.44;100.00
10881;BME280;5493;48.884;8.338;2023-04-02T09:58:06;100057.75;;;16.06;100.00
10881;BME280;5493;48.884;8.338;2023-04-02T10:00:33;100059.66;;;16.10;100.00
10881;BME280;5493;48.884;8.338;2023-04-02T10:03:03;100059.31;;;16.81;100.00
10881;BME280;5493;48.884;8.338;2023-04-02T10:05:32;100055.53;;;16.03;100.00
10881;BME280;5493;48.884;8.338;2023-04-02T10:08:15;100064.19;;;15.95;100.00
10881;BME280;5493;48.884;8.338;2023-04-02T10:10:46;100067.53;;;16.96;100.00
10881;BME280;5493;48.884;8.338;2023-04-02T10:13:18;100069.91;;;16.35;100.00
10881;BME280;5493;48.884;8.338;2023-04-02T10:15:50;100067.69;;;15.90;100.00
10881;BME280;5493;48.884;8.338;2023-04-02T10:18:22;100074.84;;;16.01;100.00
10881;BME280;5493;48.884;8.338;2023-04-02T10:20:54;100075.84;;;16.27;100.00
10881;BME280;5493;48.884;8.338;2023-04-02T10:23:26;100075.47;;;16.13;100.00
10881;BME280;5493;48.884;8.338;2023-04-02T10:25:59;100080.50;;;15.95;100.00
10881;BME280;5493;48.884;8.338;2023-04-02T10:28:40;100078.75;;;16.15;100.00
10881;BME280;5493;48.884;8.338;2023-04-02T10:31:13;100079.34;;;16.22;100.00
10881;BME280;5493;48.884;8.338;2023-04-02T10:33:49;100081.84;;;16.29;100.00
10881;BME280;5493;48.884;8.338;2023-04-02T10:36:25;100093.25;;;16.63;100.00
10881;BME280;5493;48.884;8.338;2023-04-02T10:39:01;100085.69;;;16.75;100.00
10881;BME280;5493;48.884;8.338;2023-04-02T10:41:31;100084.19;;;17.09;100.00
10881;BME280;5493;48.884;8.338;2023-04-02T10:44:20;100089.66;;;17.09;100.00
10881;BME280;5493;48.884;8.338;2023-04-02T10:46:57;100097.59;;;17.21;100.00
10881;BME280;5493;48.884;8.338;2023-04-02T10:49:32;100103.25;;;17.04;100.00
10881;BME280;5493;48.884;8.338;2023-04-02T10:52:07;100103.06;;;17.21;100.00
10881;BME280;5493;48.884;8.338;2023-04-02T10:54:43;100107.25;;;16.82;100.00
10881;BME280;5493;48.884;8.338;2023-04-02T10:57:19;100102.38;;;16.89;100.00
10881;BME280;5493;48.884;8.338;2023-04-02T10:59:51;100106.88;;;16.68;100.00
10881;BME280;5493;48.884;8.338;2023-04-02T11:02:28;100117.28;;;16.76;100.00
10881;BME280;5493;48.884;8.338;2023-04-02T11:04:59;100113.00;;;16.90;100.00
10881;BME280;5493;48.884;8.338;2023-04-02T11:07:27;100113.44;;;16.72;100.00
10881;BME280;5493;48.884;8.338;2023-04-02T11:09:58;100116.50;;;16.81;100.00
10881;BME280;5493;48.884;8.338;2023-04-02T11:12:33;100116.31;;;16.55;100.00
10881;BME280;5493;48.884;8.338;2023-04-02T11:15:02;100118.69;;;16.84;100.00
10881;BME280;5493;48.884;8.338;2023-04-02T11:17:29;100120.50;;;17.25;100.00
10881;BME280;5493;48.884;8.338;2023-04-02T11:20:40;100116.97;;;17.35;100.00
10881;BME280;5493;48.884;8.338;2023-04-02T11:23:09;100123.06;;;17.57;100.00
10881;BME280;5493;48.884;8.338;2023-04-02T11:25:38;100130.75;;;17.03;100.00
10881;BME280;5493;48.884;8.338;2023-04-02T11:28:13;100132.25;;;17.41;100.00
10881;BME280;5493;48.884;8.338;2023-04-02T11:30:40;100135.03;;;16.47;100.00
10881;BME280;5493;48.884;8.338;2023-04-02T11:33:31;100135.06;;;16.94;100.00
10881;BME280;5493;48.884;8.338;2023-04-02T11:36:04;100135.50;;;17.28;100.00
10881;BME280;5493;48.884;8.338;2023-04-02T11:38:48;100143.50;;;17.54;100.00
10881;BME280;5493;48.884;8.338;2023-04-02T11:42:02;100142.47;;;17.81;100.00
10881;BME280;5493;48.884;8.338;2023-04-02T11:44:29;100143.34;;;18.01;100.00
10881;BME280;5493;48.884;8.338;2023-04-02T11:47:16;100143.53;;;17.69;100.00
10881;BME280;5493;48.884;8.338;2023-04-02T11:49:58;100146.03;;;17.81;100.00
10881;BME280;5493;48.884;8.338;2023-04-02T11:52:28;100146.06;;;18.11;100.00
10881;BME280;5493;48.884;8.338;2023-04-02T11:55:17;100150.97;;;18.09;100.00
10881;BME280;5493;48.884;8.338;2023-04-02T11:57:56;100153.47;;;17.23;100.00
10881;BME280;5493;48.884;8.338;2023-04-02T12:00:38;100160.09;;;17.43;100.00
10881;BME280;5493;48.884;8.338;2023-04-02T12:03:30;100163.34;;;16.51;100.00
10881;BME280;5493;48.884;8.338;2023-04-02T12:06:04;100164.72;;;16.53;100.00
10881;BME280;5493;48.884;8.338;2023-04-02T12:08:44;100159.72;;;16.72;100.00
10881;BME280;5493;48.884;8.338;2023-04-02T12:11:16;100167.28;;;16.65;100.00
10881;BME280;5493;48.884;8.338;2023-04-02T12:13:52;100173.72;;;17.43;100.00
10881;BME280;5493;48.884;8.338;2023-04-02T12:16:22;100171.63;;;17.65;100.00
10881;BME280;5493;48.884;8.338;2023-04-02T12:18:55;100176.72;;;16.52;100.00
10881;BME280;5493;48.884;8.338;2023-04-02T12:21:25;100179.31;;;16.69;100.00
10881;BME280;5493;48.884;8.338;2023-04-02T12:23:54;100183.25;;;16.93;100.00
10881;BME280;5493;48.884;8.338;2023-04-02T12:26:26;100186.50;;;16.90;100.00
10881;BME280;5493;48.884;8.338;2023-04-02T12:31:57;100187.78;;;16.41;100.00
10881;BME280;5493;48.884;8.338;2023-04-02T12:34:25;100193.25;;;16.14;100.00
10881;BME280;5493;48.884;8.338;2023-04-02T12:36:56;100207.22;;;15.96;100.00
10881;BME280;5493;48.884;8.338;2023-04-02T12:39:27;100210.91;;;15.85;100.00
10881;BME280;5493;48.884;8.338;2023-04-02T12:41:54;100207.53;;;15.72;100.00
10881;BME280;5493;48.884;8.338;2023-04-02T12:44:22;100207.34;;;15.57;100.00
10881;BME280;5493;48.884;8.338;2023-04-02T12:46:49;100215.25;;;15.81;100.00
10881;BME280;5493;48.884;8.338;2023-04-02T12:49:37;100210.75;;;15.26;100.00
10881;BME280;5493;48.884;8.338;2023-04-02T12:52:06;100214.53;;;15.25;100.00
10881;BME280;5493;48.884;8.338;2023-04-02T12:54:36;100215.88;;;15.88;100.00
10881;BME280;5493;48.884;8.338;2023-04-02T12:57:30;100217.72;;;15.60;100.00
10881;BME280;5493;48.884;8.338;2023-04-02T12:59:58;100223.56;;;15.74;100.00
10881;BME280;5493;48.884;8.338;2023-04-02T13:02:26;100222.72;;;15.95;100.00
10881;BME280;5493;48.884;8.338;2023-04-02T13:04:57;100226.69;;;15.61;100.00
10881;BME280;5493;48.884;8.338;2023-04-02T13:07:27;100227.31;;;15.68;100.00
10881;BME280;5493;48.884;8.338;2023-04-02T13:09:55;100226.31;;;16.01;100.00
10881;BME280;5493;48.884;8.338;2023-04-02T13:12:24;100229.88;;;16.01;100.00
10881;BME280;5493;48.884;8.338;2023-04-02T13:14:53;100225.50;;;16.27;100.00
10881;BME280;5493;48.884;8.338;2023-04-02T13:17:36;100232.88;;;15.78;100.00
10881;BME280;5493;48.884;8.338;2023-04-02T13:20:30;100235.63;;;16.05;100.00
10881;BME280;5493;48.884;8.338;2023-04-02T13:22:57;100239.44;;;15.60;100.00
10881;BME280;5493;48.884;8.338;2023-04-02T13:25:27;100252.16;;;15.16;100.00
10881;BME280;5493;48.884;8.338;2023-04-02T13:27:55;100255.84;;;14.72;100.00
10881;BME280;5493;48.884;8.338;2023-04-02T13:30:22;100266.16;;;14.25;100.00